Terminal Aerodrome Forecast
Issued by NWS

Home | Current Version | Previous Version | Text Only | Print | Product List | Glossary On
Versions: 1 2 3 4 5 6 7 8 9 10 11 12
238
FTUS44 KCRP 120527
TAFLRD
TAF
KLRD 120527Z 1206/1306 15008KT P6SM SKC
     FM122000 12006KT P6SM FEW250=

USA.gov is the U.S. government's official web portal to all federal, state and local government web resources and services.